createdAt,value
2019-05-13T00:02:27.052Z,9.43
2019-05-13T00:04:57.460Z,9.49
2019-05-13T00:07:27.804Z,9.57
2019-05-13T00:09:58.204Z,9.56
2019-05-13T00:12:47.944Z,9.56
2019-05-13T00:15:37.956Z,9.60
2019-05-13T00:18:08.293Z,9.64
2019-05-13T00:20:38.749Z,9.57
2019-05-13T00:23:09.117Z,9.60
2019-05-13T00:25:39.504Z,9.60
2019-05-13T00:28:10.015Z,9.60
2019-05-13T00:30:40.388Z,9.62
2019-05-13T00:33:10.737Z,9.68
2019-05-13T00:35:41.103Z,9.73
2019-05-13T00:38:13.904Z,9.68
2019-05-13T00:40:54.783Z,9.68
2019-05-13T00:43:25.112Z,9.71
2019-05-13T00:46:14.916Z,9.74
2019-05-13T00:48:45.352Z,9.81
2019-05-13T00:51:15.790Z,9.72
2019-05-13T00:53:46.145Z,9.73
2019-05-13T00:56:16.586Z,9.70
2019-05-13T00:59:06.385Z,9.73
2019-05-13T01:01:36.793Z,9.64
2019-05-13T01:04:26.539Z,9.63
2019-05-13T01:06:56.993Z,9.66
2019-05-13T01:09:47.005Z,9.62
2019-05-13T01:12:17.369Z,9.65
2019-05-13T01:17:53.502Z,9.60
2019-05-13T01:20:37.364Z,9.60
2019-05-13T01:23:09.510Z,9.55
2019-05-13T01:29:09.201Z,9.59
2019-05-13T01:31:58.936Z,9.61
2019-05-13T01:34:49.067Z,9.62
2019-05-13T01:37:42.445Z,9.63
2019-05-13T01:40:23.937Z,9.58
2019-05-13T01:43:05.934Z,9.58
2019-05-13T01:45:36.308Z,9.49
2019-05-13T01:48:26.059Z,9.50
2019-05-13T01:50:56.481Z,9.49
2019-05-13T01:53:26.879Z,9.43
2019-05-13T01:55:57.267Z,9.55
2019-05-13T01:58:27.728Z,9.45
2019-05-13T02:00:58.112Z,9.45
2019-05-13T02:03:28.471Z,9.58
2019-05-13T02:06:00.520Z,9.52
2019-05-13T02:08:50.300Z,9.57
2019-05-13T02:11:20.790Z,9.58
2019-05-13T02:13:53.766Z,9.59
2019-05-13T02:16:34.690Z,9.56
2019-05-13T02:19:24.653Z,9.56
2019-05-13T02:21:55.047Z,9.59
2019-05-13T02:24:44.913Z,9.59
2019-05-13T02:27:15.257Z,9.57
2019-05-13T02:29:45.618Z,9.53
2019-05-13T02:32:16.004Z,9.53
2019-05-13T02:34:46.425Z,9.57
2019-05-13T02:37:16.830Z,9.59
2019-05-13T02:39:47.170Z,9.54
2019-05-13T02:42:37.004Z,9.46
2019-05-13T02:45:26.740Z,9.54
2019-05-13T02:48:16.527Z,9.51
2019-05-13T02:51:06.270Z,9.55
2019-05-13T02:53:56.026Z,9.53
2019-05-13T02:56:26.371Z,9.43
2019-05-13T02:59:16.143Z,9.46
2019-05-13T03:01:46.509Z,9.41
2019-05-13T03:04:16.888Z,9.46
2019-05-13T03:06:47.317Z,9.55
2019-05-13T03:09:37.107Z,9.47
2019-05-13T03:12:26.876Z,9.50
2019-05-13T03:14:57.309Z,9.48
2019-05-13T03:20:24.115Z,9.44
2019-05-13T03:22:54.600Z,9.41
2019-05-13T03:25:25.145Z,9.39
2019-05-13T03:27:55.594Z,9.41
2019-05-13T03:30:26.465Z,9.42
2019-05-13T03:33:11.721Z,9.43
2019-05-13T03:35:55.842Z,9.44
2019-05-13T03:50:43.187Z,9.47
2019-05-13T03:53:17.625Z,9.51
2019-05-13T03:55:48.549Z,9.49
2019-05-13T04:01:22.411Z,9.53
2019-05-13T04:04:12.882Z,9.54
2019-05-13T04:06:43.266Z,9.60
2019-05-13T04:09:26.222Z,9.61
2019-05-13T04:11:56.708Z,9.52
2019-05-13T04:14:27.072Z,9.52
2019-05-13T04:16:57.528Z,9.55
2019-05-13T04:22:33.009Z,9.63
2019-05-13T04:25:13.194Z,9.60
2019-05-13T04:28:03.552Z,9.61
2019-05-13T04:30:46.368Z,9.61
2019-05-13T04:33:16.744Z,9.63
2019-05-13T04:36:06.521Z,9.65
2019-05-13T04:38:36.917Z,9.57
2019-05-13T04:41:07.308Z,9.62
2019-05-13T04:43:57.106Z,9.48
2019-05-13T04:46:27.459Z,9.51
2019-05-13T04:49:17.243Z,9.61
2019-05-13T04:51:47.608Z,9.63
2019-05-13T04:54:18.002Z,9.69
2019-05-13T04:56:48.339Z,9.70
2019-05-13T04:59:18.722Z,9.58
2019-05-13T05:05:33.712Z,9.64
2019-05-13T05:08:47.025Z,9.55
2019-05-13T05:11:58.757Z,9.60
2019-05-13T05:15:07.293Z,9.64
2019-05-13T05:24:29.074Z,9.61
2019-05-13T05:27:37.653Z,9.64
2019-05-13T05:30:46.246Z,9.66
2019-05-13T05:33:54.767Z,9.61
2019-05-13T05:45:42.415Z,9.67
2019-05-13T05:51:15.031Z,9.59
2019-05-13T06:05:57.458Z,9.52
2019-05-13T06:08:27.931Z,9.54
2019-05-13T06:10:58.319Z,9.61
2019-05-13T06:13:51.559Z,9.51
2019-05-13T06:16:32.136Z,9.55
2019-05-13T06:22:42.462Z,9.66
2019-05-13T06:25:23.834Z,9.72
2019-05-13T06:27:54.216Z,9.70
2019-05-13T06:30:24.565Z,9.88
2019-05-13T06:32:55.099Z,9.82
2019-05-13T06:35:25.642Z,9.93
2019-05-13T06:37:56.107Z,9.91
2019-05-13T06:40:26.498Z,9.89
2019-05-13T06:42:56.923Z,10.15
2019-05-13T06:45:27.292Z,10.20
2019-05-13T06:47:57.796Z,10.10
2019-05-13T06:50:28.222Z,10.11
2019-05-13T06:53:18.027Z,10.11
2019-05-13T06:55:48.411Z,10.12
2019-05-13T06:58:18.832Z,10.09
2019-05-13T07:01:11.399Z,10.28
2019-05-13T07:03:52.040Z,10.26
2019-05-13T07:06:22.481Z,10.21
2019-05-13T07:09:07.051Z,10.27
2019-05-13T07:11:37.472Z,10.39
2019-05-13T07:14:07.909Z,10.26
2019-05-13T07:16:38.300Z,10.10
2019-05-13T07:19:08.687Z,10.21
2019-05-13T07:21:41.619Z,10.20
2019-05-13T07:24:22.905Z,10.23
2019-05-13T07:26:53.356Z,10.23
2019-05-13T07:29:24.266Z,10.32
2019-05-13T07:32:06.786Z,10.32
2019-05-13T07:34:37.166Z,10.53
2019-05-13T07:37:07.558Z,10.61
2019-05-13T07:39:41.870Z,10.63
2019-05-13T07:42:31.357Z,10.51
2019-05-13T07:45:08.806Z,10.52
2019-05-13T07:48:01.256Z,10.62
2019-05-13T07:50:55.555Z,10.69
2019-05-13T07:53:26.047Z,10.73
2019-05-13T07:55:56.469Z,10.71
2019-05-13T07:58:26.824Z,10.55
2019-05-13T08:00:57.202Z,10.79
2019-05-13T08:03:46.961Z,10.85
2019-05-13T08:06:17.358Z,10.71
2019-05-13T08:09:09.222Z,10.61
2019-05-13T08:11:56.348Z,10.73
2019-05-13T08:14:32.402Z,10.87
2019-05-13T08:17:08.669Z,10.81
2019-05-13T08:19:41.368Z,10.95
2019-05-13T08:22:22.610Z,11.05
2019-05-13T08:24:54.489Z,11.13
2019-05-13T08:27:44.546Z,11.18
2019-05-13T08:30:18.056Z,11.02
2019-05-13T08:33:06.553Z,11.12
2019-05-13T08:35:58.709Z,11.36
2019-05-13T08:38:34.051Z,11.35
2019-05-13T08:41:04.443Z,11.21
2019-05-13T08:43:34.879Z,11.16
2019-05-13T08:46:24.942Z,11.30
2019-05-13T08:48:55.422Z,11.30
2019-05-13T08:51:25.862Z,11.40
2019-05-13T08:53:56.259Z,11.33
2019-05-13T08:56:26.640Z,11.25
2019-05-13T08:58:57.031Z,11.28
2019-05-13T09:01:27.428Z,11.44
2019-05-13T09:03:57.825Z,11.55
2019-05-13T09:06:47.602Z,11.57
2019-05-13T09:09:18.068Z,11.40
2019-05-13T09:11:51.588Z,11.40
2019-05-13T09:14:33.764Z,11.35
2019-05-13T09:17:04.199Z,11.31
2019-05-13T09:19:53.975Z,11.36
2019-05-13T09:22:24.419Z,11.55
2019-05-13T09:25:14.656Z,11.57
2019-05-13T09:27:45.016Z,11.57
2019-05-13T09:30:15.397Z,11.50
2019-05-13T09:32:45.792Z,11.54
2019-05-13T09:35:16.245Z,11.88
2019-05-13T09:37:46.631Z,12.00
2019-05-13T09:40:36.721Z,12.19
2019-05-13T09:43:26.503Z,12.28
2019-05-13T09:45:56.897Z,12.32
2019-05-13T09:48:27.365Z,12.34
2019-05-13T09:50:57.821Z,12.49
2019-05-13T09:53:28.194Z,12.52
2019-05-13T09:56:18.005Z,12.94
2019-05-13T09:58:48.439Z,12.89
2019-05-13T10:01:18.936Z,12.59
2019-05-13T10:04:08.763Z,13.30
2019-05-13T10:06:41.692Z,13.22
2019-05-13T10:09:32.729Z,13.04
2019-05-13T10:12:13.646Z,13.47
2019-05-13T10:14:44.043Z,13.38
2019-05-13T10:17:14.542Z,13.39
2019-05-13T10:19:45.099Z,13.57
2019-05-13T10:22:15.530Z,13.59
2019-05-13T10:24:46.553Z,13.06
2019-05-13T10:27:36.562Z,13.23
2019-05-13T10:33:12.407Z,13.38
2019-05-13T10:41:48.593Z,13.33
2019-05-13T10:44:19.181Z,13.35
2019-05-13T10:46:52.212Z,13.51
2019-05-13T10:49:27.340Z,13.84
2019-05-13T10:51:57.749Z,13.80
2019-05-13T10:54:28.152Z,13.66
2019-05-13T10:56:59.836Z,13.75
2019-05-13T10:59:52.474Z,13.49
2019-05-13T11:02:36.779Z,13.23
2019-05-13T11:05:07.331Z,13.30
2019-05-13T11:07:38.077Z,13.37
2019-05-13T11:10:08.713Z,13.33
2019-05-13T11:12:52.043Z,13.09
2019-05-13T11:15:22.774Z,12.99
2019-05-13T11:18:18.825Z,13.28
2019-05-13T11:20:56.206Z,13.41
2019-05-13T11:23:28.267Z,13.50
2019-05-13T11:25:58.653Z,13.62
2019-05-13T11:28:29.610Z,13.61
2019-05-13T11:31:12.546Z,13.53
2019-05-13T11:33:43.033Z,13.70
2019-05-13T11:36:33.700Z,13.59
2019-05-13T11:39:15.739Z,13.36
2019-05-13T11:41:46.293Z,13.40
2019-05-13T11:44:17.210Z,13.44
2019-05-13T11:47:02.349Z,13.46
2019-05-13T11:49:42.973Z,13.75
2019-05-13T11:52:32.739Z,13.60
2019-05-13T11:55:23.129Z,13.64
2019-05-13T11:57:53.611Z,13.74
2019-05-13T12:01:02.912Z,14.11
2019-05-13T12:03:33.580Z,14.47
2019-05-13T12:06:04.106Z,14.50
2019-05-13T12:08:34.595Z,14.65
2019-05-13T12:11:24.439Z,14.50
2019-05-13T12:13:56.520Z,14.30
2019-05-13T12:16:27.064Z,14.18
2019-05-13T12:18:57.558Z,14.18
2019-05-13T12:21:28.007Z,14.25
2019-05-13T12:23:58.596Z,14.23
2019-05-13T12:26:33.106Z,14.18
2019-05-13T12:29:18.523Z,13.97
2019-05-13T12:31:55.867Z,14.10
2019-05-13T12:34:26.311Z,14.06
2019-05-13T12:36:56.742Z,13.99
2019-05-13T12:39:27.181Z,14.42
2019-05-13T12:42:17.021Z,14.57
2019-05-13T12:45:10.074Z,14.58
2019-05-13T12:47:52.484Z,14.18
2019-05-13T12:50:33.498Z,14.31
2019-05-13T12:53:23.297Z,14.53
2019-05-13T12:55:57.299Z,14.40
2019-05-13T12:58:38.131Z,14.42
2019-05-13T13:01:08.526Z,14.30
2019-05-13T13:03:38.929Z,14.12
2019-05-13T13:06:27.246Z,13.93
2019-05-13T13:08:53.875Z,13.70
2019-05-13T13:11:24.269Z,13.53
2019-05-13T13:14:15.603Z,13.47
2019-05-13T13:16:54.019Z,13.43
2019-05-13T13:19:37.126Z,13.47
2019-05-13T13:22:08.181Z,13.57
2019-05-13T13:25:04.217Z,13.47
2019-05-13T13:28:03.976Z,13.37
2019-05-13T13:30:20.300Z,13.38
2019-05-13T13:32:57.866Z,13.35
2019-05-13T13:35:28.386Z,13.33
2019-05-13T13:38:18.315Z,13.31
2019-05-13T13:40:53.534Z,13.30
2019-05-13T13:43:37.006Z,13.33
2019-05-13T13:46:32.622Z,13.28
2019-05-13T13:48:55.708Z,13.27
2019-05-13T13:51:37.768Z,13.44
2019-05-13T13:54:08.200Z,13.42
2019-05-13T13:56:38.622Z,13.22
2019-05-13T13:59:09.161Z,13.35
2019-05-13T14:01:39.590Z,13.39
2019-05-13T14:04:15.933Z,13.36
2019-05-13T14:09:37.530Z,13.16
2019-05-13T14:12:08.016Z,13.24
2019-05-13T14:14:57.795Z,13.14
2019-05-13T14:17:28.228Z,13.06
2019-05-13T14:19:58.600Z,13.23
2019-05-13T14:22:29.087Z,13.24
2019-05-13T14:24:59.466Z,13.12
2019-05-13T14:27:49.271Z,12.93
2019-05-13T14:33:42.403Z,12.74
2019-05-13T14:36:23.727Z,12.73
2019-05-13T14:38:54.110Z,12.74
2019-05-13T14:41:43.859Z,12.84
2019-05-13T14:44:14.365Z,12.80
2019-05-13T14:46:47.894Z,12.87
2019-05-13T14:49:28.151Z,12.90
2019-05-13T14:51:58.552Z,13.10
2019-05-13T14:54:29.278Z,13.18
2019-05-13T14:57:14.878Z,13.17
2019-05-13T14:59:55.199Z,13.06
2019-05-13T15:02:25.669Z,13.08
2019-05-13T15:05:11.768Z,12.94
2019-05-13T15:07:52.977Z,12.93
2019-05-13T15:10:34.938Z,12.90
2019-05-13T15:13:05.414Z,12.96
2019-05-13T15:15:35.828Z,12.89
2019-05-13T15:18:06.192Z,12.82
2019-05-13T15:20:36.623Z,12.74
2019-05-13T15:23:07.122Z,12.87
2019-05-13T15:25:37.749Z,12.86
2019-05-13T15:28:27.578Z,13.10
2019-05-13T15:30:58.170Z,13.18
2019-05-13T15:33:28.558Z,13.25
2019-05-13T15:36:01.809Z,13.25
2019-05-13T15:38:52.271Z,13.35
2019-05-13T15:41:22.678Z,13.39
2019-05-13T15:43:53.100Z,13.50
2019-05-13T15:46:23.478Z,13.72
2019-05-13T15:49:13.241Z,13.62
2019-05-13T15:52:03.070Z,13.57
2019-05-13T15:54:33.451Z,13.68
2019-05-13T15:57:03.916Z,13.53
2019-05-13T15:59:34.379Z,13.21
2019-05-13T16:02:24.195Z,13.18
2019-05-13T16:05:14.149Z,13.11
2019-05-13T16:07:44.653Z,12.88
2019-05-13T16:10:36.076Z,12.66
2019-05-13T16:13:06.510Z,12.74
2019-05-13T16:15:56.292Z,12.64
2019-05-13T16:18:46.157Z,12.44
2019-05-13T16:21:16.609Z,12.31
2019-05-13T16:23:47.016Z,12.28
2019-05-13T16:26:36.766Z,12.13
2019-05-13T16:29:26.579Z,11.89
2019-05-13T16:31:57.036Z,11.88
2019-05-13T16:34:46.942Z,11.87
2019-05-13T16:37:17.428Z,11.79
2019-05-13T16:40:46.705Z,11.74
2019-05-13T16:43:17.123Z,11.92
2019-05-13T16:45:47.554Z,12.01
2019-05-13T16:48:17.974Z,12.14
2019-05-13T16:50:48.523Z,12.03
2019-05-13T16:53:22.404Z,11.79
2019-05-13T16:56:04.683Z,11.83
2019-05-13T16:58:35.126Z,11.74
2019-05-13T17:01:05.579Z,11.82
2019-05-13T17:03:35.966Z,11.58
2019-05-13T17:06:06.356Z,11.41
2019-05-13T17:08:36.935Z,11.41
2019-05-13T17:11:07.424Z,11.33
2019-05-13T17:13:57.245Z,11.37
2019-05-13T17:16:27.679Z,11.35
2019-05-13T17:18:58.181Z,11.21
2019-05-13T17:21:28.780Z,11.24
2019-05-13T17:24:01.486Z,11.15
2019-05-13T17:26:52.238Z,10.93
2019-05-13T17:29:33.338Z,10.93
2019-05-13T17:32:03.827Z,11.00
2019-05-13T17:34:34.317Z,11.02
2019-05-13T17:37:04.878Z,10.81
2019-05-13T17:39:35.354Z,10.90
2019-05-13T17:42:05.853Z,10.77
2019-05-13T17:44:38.138Z,10.65
2019-05-13T17:47:27.951Z,10.62
2019-05-13T17:50:17.767Z,10.58
2019-05-13T17:52:48.191Z,10.50
2019-05-13T17:55:18.710Z,10.57
2019-05-13T17:57:49.105Z,10.58
2019-05-13T18:00:21.557Z,10.60
2019-05-13T18:03:05.063Z,10.54
2019-05-13T18:05:35.479Z,10.50
2019-05-13T18:08:05.933Z,10.42
2019-05-13T18:10:55.754Z,10.34
2019-05-13T18:13:27.930Z,10.34
2019-05-13T18:15:58.372Z,10.27
2019-05-13T18:18:40.335Z,10.19
2019-05-13T18:21:13.114Z,10.15
2019-05-13T18:23:43.523Z,10.11
2019-05-13T18:26:16.166Z,10.03
2019-05-13T18:28:56.889Z,10.11
2019-05-13T18:31:27.473Z,10.06
2019-05-13T18:34:17.210Z,10.06
2019-05-13T18:36:47.715Z,10.02
2019-05-13T18:39:18.130Z,9.99
2019-05-13T18:41:48.591Z,9.92
2019-05-13T18:44:19.081Z,9.89
2019-05-13T18:46:52.177Z,9.86
2019-05-13T18:49:42.280Z,9.86
2019-05-13T18:52:24.004Z,9.78
2019-05-13T18:55:19.319Z,9.78
2019-05-13T18:58:11.474Z,9.81
2019-05-13T19:01:01.318Z,9.74
2019-05-13T19:03:43.495Z,9.78
2019-05-13T19:06:13.945Z,9.73
2019-05-13T19:08:44.397Z,9.68
2019-05-13T19:11:16.397Z,9.72
2019-05-13T19:13:46.846Z,9.88
2019-05-13T19:16:17.237Z,9.74
2019-05-13T19:18:47.670Z,9.77
2019-05-13T19:21:18.157Z,9.72
2019-05-13T19:23:48.650Z,9.71
2019-05-13T19:26:19.094Z,9.76
2019-05-13T19:28:55.889Z,9.73
2019-05-13T19:31:26.417Z,9.69
2019-05-13T19:33:56.868Z,9.69
2019-05-13T19:36:27.235Z,9.73
2019-05-13T19:38:57.631Z,9.66
2019-05-13T19:41:28.032Z,9.69
2019-05-13T19:43:58.482Z,9.67
2019-05-13T19:46:31.266Z,9.65
2019-05-13T19:49:29.639Z,9.71
2019-05-13T19:52:04.281Z,9.66
2019-05-13T19:54:34.657Z,9.63
2019-05-13T19:57:05.064Z,9.64
2019-05-13T19:59:35.448Z,9.71
2019-05-13T20:02:05.861Z,9.77
2019-05-13T20:04:36.376Z,9.71
2019-05-13T20:07:06.749Z,9.69
2019-05-13T20:09:37.230Z,9.68
2019-05-13T20:12:07.648Z,9.67
2019-05-13T20:14:38.084Z,9.61
2019-05-13T20:17:08.671Z,9.59
2019-05-13T20:19:47.625Z,9.65
2019-05-13T20:22:31.321Z,9.64
2019-05-13T20:25:13.646Z,9.67
2019-05-13T20:27:44.117Z,9.64
2019-05-13T20:30:14.701Z,9.59
2019-05-13T20:32:45.127Z,9.64
2019-05-13T20:35:15.808Z,9.58
2019-05-13T20:37:52.702Z,9.55
2019-05-13T20:40:23.146Z,9.63
2019-05-13T20:42:53.587Z,9.57
2019-05-13T20:45:24.100Z,9.62
2019-05-13T20:48:13.954Z,9.63
2019-05-13T20:50:44.373Z,9.58
2019-05-13T20:53:34.139Z,9.52
2019-05-13T20:56:04.513Z,9.56
2019-05-13T20:58:34.933Z,9.51
2019-05-13T21:01:24.798Z,9.60
2019-05-13T21:03:55.219Z,9.58
2019-05-13T21:06:25.652Z,9.51
2019-05-13T21:08:56.071Z,9.49
2019-05-13T21:11:26.565Z,9.52
2019-05-13T21:13:57.064Z,9.51
2019-05-13T21:16:27.597Z,9.50
2019-05-13T21:18:58.027Z,9.38
2019-05-13T21:21:28.429Z,9.38
2019-05-13T21:23:58.857Z,9.43
2019-05-13T21:26:31.354Z,9.39
2019-05-13T21:29:06.896Z,9.40
2019-05-13T21:31:56.669Z,9.36
2019-05-13T21:34:27.032Z,9.30
2019-05-13T21:36:57.435Z,9.31
2019-05-13T21:39:27.868Z,9.35
2019-05-13T21:42:17.655Z,9.33
2019-05-13T21:44:48.006Z,9.25
2019-05-13T21:47:18.426Z,9.21
2019-05-13T21:53:12.453Z,9.17
2019-05-13T21:56:02.589Z,9.16
2019-05-13T21:58:45.385Z,9.17
2019-05-13T22:01:15.843Z,9.16
2019-05-13T22:03:46.237Z,9.08
2019-05-13T22:06:16.601Z,9.11
2019-05-13T22:09:11.687Z,8.99
2019-05-13T22:11:48.147Z,9.03
2019-05-13T22:14:18.729Z,9.01
2019-05-13T22:16:49.180Z,8.98
2019-05-13T22:19:19.545Z,9.08
2019-05-13T22:21:51.540Z,9.08
2019-05-13T22:24:33.158Z,9.10
2019-05-13T22:27:03.523Z,9.15
2019-05-13T22:29:33.930Z,9.08
2019-05-13T22:32:04.297Z,9.23
2019-05-13T22:34:34.759Z,9.13
2019-05-13T22:37:05.167Z,9.09
2019-05-13T22:39:35.646Z,9.09
2019-05-13T22:42:06.040Z,9.09
2019-05-13T22:44:36.514Z,9.17
2019-05-13T22:47:26.280Z,9.14
2019-05-13T22:49:58.295Z,9.17
2019-05-13T22:52:31.104Z,9.12
2019-05-13T22:55:11.870Z,9.17
2019-05-13T22:58:01.669Z,9.15
2019-05-13T23:00:51.782Z,9.10
2019-05-13T23:03:33.954Z,9.20
2019-05-13T23:06:04.373Z,9.11
2019-05-13T23:08:34.720Z,9.17
2019-05-13T23:11:05.115Z,9.16
2019-05-13T23:14:06.426Z,9.17
2019-05-13T23:16:41.997Z,9.17
2019-05-13T23:19:22.203Z,9.14
2019-05-13T23:21:52.616Z,9.16
2019-05-13T23:24:42.354Z,9.21
2019-05-13T23:27:32.196Z,9.24
2019-05-13T23:30:02.599Z,9.24
2019-05-13T23:32:33.031Z,9.20
2019-05-13T23:35:03.372Z,9.16
2019-05-13T23:37:53.159Z,9.14
2019-05-13T23:40:42.908Z,9.09
2019-05-13T23:43:13.278Z,9.03
2019-05-13T23:45:43.633Z,9.03
2019-05-13T23:48:33.416Z,9.06
2019-05-13T23:51:23.203Z,9.02
2019-05-13T23:53:53.584Z,8.99
2019-05-13T23:56:23.964Z,9.00
2019-05-13T23:58:54.351Z,9.08
